sensor_id;sensor_type;location;lat;lon;timestamp;P1;durP1;ratioP1;P2;durP2;ratioP2
30948;SDS011;17637;51.984;21.208;2022-11-15T00:00:57;53.00;;;35.30;;
30948;SDS011;17637;51.984;21.208;2022-11-15T00:03:26;51.00;;;35.83;;
30948;SDS011;17637;51.984;21.208;2022-11-15T00:05:54;51.92;;;33.97;;
30948;SDS011;17637;51.984;21.208;2022-11-15T00:08:21;60.58;;;37.42;;
30948;SDS011;17637;51.984;21.208;2022-11-15T00:10:55;57.40;;;38.63;;
30948;SDS011;17637;51.984;21.208;2022-11-15T00:13:22;56.25;;;37.88;;
30948;SDS011;17637;51.984;21.208;2022-11-15T00:15:50;56.38;;;37.63;;
30948;SDS011;17637;51.984;21.208;2022-11-15T00:18:17;53.17;;;36.15;;
30948;SDS011;17637;51.984;21.208;2022-11-15T00:20:44;54.55;;;35.65;;
30948;SDS011;17637;51.984;21.208;2022-11-15T00:23:11;58.53;;;37.95;;
30948;SDS011;17637;51.984;21.208;2022-11-15T00:25:38;57.17;;;37.28;;
30948;SDS011;17637;51.984;21.208;2022-11-15T00:28:05;62.40;;;39.25;;
30948;SDS011;17637;51.984;21.208;2022-11-15T00:30:32;53.28;;;37.55;;
30948;SDS011;17637;51.984;21.208;2022-11-15T00:33:06;50.83;;;35.33;;
30948;SDS011;17637;51.984;21.208;2022-11-15T00:35:33;57.58;;;37.58;;
30948;SDS011;17637;51.984;21.208;2022-11-15T00:38:01;55.30;;;37.40;;
30948;SDS011;17637;51.984;21.208;2022-11-15T00:40:28;54.92;;;35.50;;
30948;SDS011;17637;51.984;21.208;2022-11-15T00:42:56;60.92;;;38.22;;
30948;SDS011;17637;51.984;21.208;2022-11-15T00:45:23;55.13;;;36.92;;
30948;SDS011;17637;51.984;21.208;2022-11-15T00:47:51;56.17;;;38.22;;
30948;SDS011;17637;51.984;21.208;2022-11-15T00:50:18;54.63;;;35.65;;
30948;SDS011;17637;51.984;21.208;2022-11-15T00:52:45;57.05;;;36.63;;
30948;SDS011;17637;51.984;21.208;2022-11-15T00:55:13;56.83;;;37.83;;
30948;SDS011;17637;51.984;21.208;2022-11-15T00:57:42;51.92;;;35.03;;
30948;SDS011;17637;51.984;21.208;2022-11-15T01:00:09;51.90;;;34.33;;
30948;SDS011;17637;51.984;21.208;2022-11-15T01:02:37;54.65;;;36.17;;
30948;SDS011;17637;51.984;21.208;2022-11-15T01:05:04;57.85;;;35.25;;
30948;SDS011;17637;51.984;21.208;2022-11-15T01:07:32;56.25;;;37.42;;
30948;SDS011;17637;51.984;21.208;2022-11-15T01:10:00;54.22;;;36.17;;
30948;SDS011;17637;51.984;21.208;2022-11-15T01:12:27;48.75;;;30.92;;
30948;SDS011;17637;51.984;21.208;2022-11-15T01:14:54;47.38;;;32.47;;
30948;SDS011;17637;51.984;21.208;2022-11-15T01:17:21;52.13;;;34.75;;
30948;SDS011;17637;51.984;21.208;2022-11-15T01:19:48;49.22;;;31.85;;
30948;SDS011;17637;51.984;21.208;2022-11-15T01:22:15;50.90;;;32.42;;
30948;SDS011;17637;51.984;21.208;2022-11-15T01:24:42;51.53;;;33.42;;
30948;SDS011;17637;51.984;21.208;2022-11-15T01:27:09;53.60;;;33.42;;
30948;SDS011;17637;51.984;21.208;2022-11-15T01:29:36;51.05;;;33.72;;
30948;SDS011;17637;51.984;21.208;2022-11-15T01:32:03;53.15;;;34.70;;
30948;SDS011;17637;51.984;21.208;2022-11-15T01:34:30;47.60;;;31.02;;
30948;SDS011;17637;51.984;21.208;2022-11-15T01:36:57;53.80;;;34.00;;
30948;SDS011;17637;51.984;21.208;2022-11-15T01:39:25;57.58;;;36.67;;
30948;SDS011;17637;51.984;21.208;2022-11-15T01:41:53;48.42;;;31.52;;
30948;SDS011;17637;51.984;21.208;2022-11-15T01:47:14;53.17;;;32.88;;
30948;SDS011;17637;51.984;21.208;2022-11-15T01:49:55;53.22;;;33.15;;
30948;SDS011;17637;51.984;21.208;2022-11-15T01:52:30;52.00;;;33.13;;
30948;SDS011;17637;51.984;21.208;2022-11-15T01:55:20;52.72;;;33.78;;
30948;SDS011;17637;51.984;21.208;2022-11-15T01:57:59;53.65;;;33.97;;
30948;SDS011;17637;51.984;21.208;2022-11-15T02:00:30;57.60;;;34.67;;
30948;SDS011;17637;51.984;21.208;2022-11-15T02:02:58;55.45;;;35.17;;
30948;SDS011;17637;51.984;21.208;2022-11-15T02:05:25;54.97;;;35.15;;
30948;SDS011;17637;51.984;21.208;2022-11-15T02:07:53;57.03;;;34.63;;
30948;SDS011;17637;51.984;21.208;2022-11-15T02:10:21;54.55;;;34.47;;
30948;SDS011;17637;51.984;21.208;2022-11-15T02:12:49;52.05;;;32.35;;
30948;SDS011;17637;51.984;21.208;2022-11-15T02:15:18;56.53;;;35.72;;
30948;SDS011;17637;51.984;21.208;2022-11-15T02:18:01;56.17;;;35.10;;
30948;SDS011;17637;51.984;21.208;2022-11-15T02:21:11;51.67;;;33.88;;
30948;SDS011;17637;51.984;21.208;2022-11-15T02:23:58;53.97;;;33.90;;
30948;SDS011;17637;51.984;21.208;2022-11-15T02:32:15;57.87;;;35.17;;
30948;SDS011;17637;51.984;21.208;2022-11-15T02:38:06;54.53;;;32.65;;
30948;SDS011;17637;51.984;21.208;2022-11-15T02:40:47;61.50;;;37.85;;
30948;SDS011;17637;51.984;21.208;2022-11-15T02:43:33;58.85;;;35.47;;
30948;SDS011;17637;51.984;21.208;2022-11-15T02:49:47;54.05;;;34.38;;
30948;SDS011;17637;51.984;21.208;2022-11-15T02:52:18;56.40;;;34.90;;
30948;SDS011;17637;51.984;21.208;2022-11-15T02:54:58;52.63;;;31.25;;
30948;SDS011;17637;51.984;21.208;2022-11-15T02:57:38;52.67;;;31.90;;
30948;SDS011;17637;51.984;21.208;2022-11-15T03:00:10;59.72;;;34.75;;
30948;SDS011;17637;51.984;21.208;2022-11-15T03:11:09;65.03;;;38.13;;
30948;SDS011;17637;51.984;21.208;2022-11-15T03:19:06;60.33;;;35.55;;
30948;SDS011;17637;51.984;21.208;2022-11-15T03:21:55;61.70;;;35.75;;
30948;SDS011;17637;51.984;21.208;2022-11-15T03:24:26;63.55;;;36.60;;
30948;SDS011;17637;51.984;21.208;2022-11-15T03:26:57;66.43;;;39.00;;
30948;SDS011;17637;51.984;21.208;2022-11-15T03:29:32;60.92;;;35.53;;
30948;SDS011;17637;51.984;21.208;2022-11-15T03:32:25;66.60;;;37.70;;
30948;SDS011;17637;51.984;21.208;2022-11-15T03:40:17;58.35;;;35.00;;
30948;SDS011;17637;51.984;21.208;2022-11-15T03:45:28;60.28;;;35.75;;
30948;SDS011;17637;51.984;21.208;2022-11-15T03:50:48;62.50;;;35.53;;
30948;SDS011;17637;51.984;21.208;2022-11-15T03:53:16;67.97;;;37.22;;
30948;SDS011;17637;51.984;21.208;2022-11-15T03:55:43;61.85;;;37.28;;
30948;SDS011;17637;51.984;21.208;2022-11-15T03:58:10;66.22;;;38.33;;
30948;SDS011;17637;51.984;21.208;2022-11-15T04:00:37;61.45;;;36.92;;
30948;SDS011;17637;51.984;21.208;2022-11-15T04:03:04;62.17;;;36.65;;
30948;SDS011;17637;51.984;21.208;2022-11-15T04:05:31;64.13;;;37.13;;
30948;SDS011;17637;51.984;21.208;2022-11-15T04:07:58;73.07;;;40.08;;
30948;SDS011;17637;51.984;21.208;2022-11-15T04:10:25;66.55;;;37.17;;
30948;SDS011;17637;51.984;21.208;2022-11-15T04:12:52;74.00;;;39.75;;
30948;SDS011;17637;51.984;21.208;2022-11-15T04:15:21;69.05;;;38.47;;
30948;SDS011;17637;51.984;21.208;2022-11-15T04:17:50;74.23;;;40.77;;
30948;SDS011;17637;51.984;21.208;2022-11-15T04:20:22;70.47;;;38.95;;
30948;SDS011;17637;51.984;21.208;2022-11-15T04:23:11;65.32;;;36.58;;
30948;SDS011;17637;51.984;21.208;2022-11-15T04:25:59;70.45;;;38.88;;
30948;SDS011;17637;51.984;21.208;2022-11-15T04:28:28;67.05;;;36.45;;
30948;SDS011;17637;51.984;21.208;2022-11-15T04:30:55;74.45;;;39.83;;
30948;SDS011;17637;51.984;21.208;2022-11-15T04:33:23;70.90;;;38.45;;
30948;SDS011;17637;51.984;21.208;2022-11-15T04:35:50;73.13;;;40.05;;
30948;SDS011;17637;51.984;21.208;2022-11-15T04:38:37;66.85;;;37.33;;
30948;SDS011;17637;51.984;21.208;2022-11-15T04:41:04;61.20;;;34.65;;
30948;SDS011;17637;51.984;21.208;2022-11-15T04:43:31;72.53;;;39.65;;
30948;SDS011;17637;51.984;21.208;2022-11-15T04:45:59;66.88;;;36.83;;
30948;SDS011;17637;51.984;21.208;2022-11-15T04:48:26;72.32;;;38.00;;
30948;SDS011;17637;51.984;21.208;2022-11-15T04:50:53;74.13;;;40.55;;
30948;SDS011;17637;51.984;21.208;2022-11-15T04:53:20;59.28;;;34.95;;
30948;SDS011;17637;51.984;21.208;2022-11-15T04:55:47;65.80;;;35.53;;
30948;SDS011;17637;51.984;21.208;2022-11-15T04:58:14;74.57;;;39.60;;
30948;SDS011;17637;51.984;21.208;2022-11-15T05:00:41;73.43;;;38.80;;
30948;SDS011;17637;51.984;21.208;2022-11-15T05:03:08;62.97;;;36.15;;
30948;SDS011;17637;51.984;21.208;2022-11-15T05:05:55;64.90;;;36.03;;
30948;SDS011;17637;51.984;21.208;2022-11-15T05:08:23;68.57;;;37.20;;
30948;SDS011;17637;51.984;21.208;2022-11-15T05:10:51;63.15;;;34.85;;
30948;SDS011;17637;51.984;21.208;2022-11-15T05:13:18;72.90;;;37.50;;
30948;SDS011;17637;51.984;21.208;2022-11-15T05:15:46;73.93;;;36.30;;
30948;SDS011;17637;51.984;21.208;2022-11-15T05:18:14;68.80;;;35.67;;
30948;SDS011;17637;51.984;21.208;2022-11-15T05:20:48;66.38;;;34.05;;
30948;SDS011;17637;51.984;21.208;2022-11-15T05:23:15;63.60;;;32.90;;
30948;SDS011;17637;51.984;21.208;2022-11-15T05:25:42;81.45;;;39.47;;
30948;SDS011;17637;51.984;21.208;2022-11-15T05:28:09;72.30;;;38.50;;
30948;SDS011;17637;51.984;21.208;2022-11-15T05:30:36;77.75;;;39.13;;
30948;SDS011;17637;51.984;21.208;2022-11-15T05:33:03;75.38;;;36.70;;
30948;SDS011;17637;51.984;21.208;2022-11-15T05:35:35;79.50;;;36.70;;
30948;SDS011;17637;51.984;21.208;2022-11-15T05:38:08;82.53;;;38.58;;
30948;SDS011;17637;51.984;21.208;2022-11-15T05:40:35;62.65;;;33.10;;
30948;SDS011;17637;51.984;21.208;2022-11-15T05:43:02;79.78;;;34.45;;
30948;SDS011;17637;51.984;21.208;2022-11-15T05:45:31;67.88;;;33.88;;
30948;SDS011;17637;51.984;21.208;2022-11-15T05:48:00;73.57;;;35.17;;
30948;SDS011;17637;51.984;21.208;2022-11-15T05:50:30;104.60;;;40.47;;
30948;SDS011;17637;51.984;21.208;2022-11-15T05:52:57;101.70;;;40.80;;
30948;SDS011;17637;51.984;21.208;2022-11-15T05:55:30;93.00;;;36.83;;
30948;SDS011;17637;51.984;21.208;2022-11-15T05:57:58;89.13;;;37.70;;
30948;SDS011;17637;51.984;21.208;2022-11-15T06:00:26;73.45;;;34.72;;
30948;SDS011;17637;51.984;21.208;2022-11-15T06:02:53;78.43;;;35.30;;
30948;SDS011;17637;51.984;21.208;2022-11-15T06:05:20;90.25;;;36.70;;
30948;SDS011;17637;51.984;21.208;2022-11-15T06:07:47;82.95;;;36.70;;
30948;SDS011;17637;51.984;21.208;2022-11-15T06:10:14;78.72;;;35.90;;
30948;SDS011;17637;51.984;21.208;2022-11-15T06:12:41;75.68;;;35.03;;
30948;SDS011;17637;51.984;21.208;2022-11-15T06:15:08;85.10;;;36.58;;
30948;SDS011;17637;51.984;21.208;2022-11-15T06:17:35;87.63;;;35.50;;
30948;SDS011;17637;51.984;21.208;2022-11-15T06:20:02;78.55;;;35.45;;
30948;SDS011;17637;51.984;21.208;2022-11-15T06:22:29;78.32;;;35.05;;
30948;SDS011;17637;51.984;21.208;2022-11-15T06:24:56;84.13;;;35.85;;
30948;SDS011;17637;51.984;21.208;2022-11-15T06:27:30;85.45;;;36.13;;
30948;SDS011;17637;51.984;21.208;2022-11-15T06:29:57;65.10;;;32.05;;
30948;SDS011;17637;51.984;21.208;2022-11-15T06:32:24;71.68;;;33.30;;
30948;SDS011;17637;51.984;21.208;2022-11-15T06:34:51;64.68;;;31.02;;
30948;SDS011;17637;51.984;21.208;2022-11-15T06:37:18;72.47;;;32.17;;
30948;SDS011;17637;51.984;21.208;2022-11-15T06:39:45;81.35;;;33.17;;
30948;SDS011;17637;51.984;21.208;2022-11-15T06:42:12;72.22;;;32.05;;
30948;SDS011;17637;51.984;21.208;2022-11-15T06:44:39;81.82;;;32.80;;
30948;SDS011;17637;51.984;21.208;2022-11-15T06:47:06;70.10;;;32.22;;
30948;SDS011;17637;51.984;21.208;2022-11-15T06:49:33;71.47;;;32.20;;
30948;SDS011;17637;51.984;21.208;2022-11-15T06:52:00;57.75;;;29.55;;
30948;SDS011;17637;51.984;21.208;2022-11-15T06:54:27;67.28;;;29.92;;
30948;SDS011;17637;51.984;21.208;2022-11-15T06:56:54;70.88;;;30.20;;
30948;SDS011;17637;51.984;21.208;2022-11-15T06:59:21;65.03;;;30.90;;
30948;SDS011;17637;51.984;21.208;2022-11-15T07:01:50;78.60;;;31.52;;
30948;SDS011;17637;51.984;21.208;2022-11-15T07:04:17;76.70;;;30.30;;
30948;SDS011;17637;51.984;21.208;2022-11-15T07:06:46;72.25;;;30.27;;
30948;SDS011;17637;51.984;21.208;2022-11-15T07:09:14;74.90;;;30.40;;
30948;SDS011;17637;51.984;21.208;2022-11-15T07:11:41;64.45;;;29.52;;
30948;SDS011;17637;51.984;21.208;2022-11-15T07:14:08;93.13;;;32.55;;
30948;SDS011;17637;51.984;21.208;2022-11-15T07:16:36;61.80;;;28.30;;
30948;SDS011;17637;51.984;21.208;2022-11-15T07:19:03;61.03;;;29.58;;
30948;SDS011;17637;51.984;21.208;2022-11-15T07:21:30;55.20;;;27.35;;
30948;SDS011;17637;51.984;21.208;2022-11-15T07:23:59;60.47;;;29.40;;
30948;SDS011;17637;51.984;21.208;2022-11-15T07:26:26;58.30;;;28.83;;
30948;SDS011;17637;51.984;21.208;2022-11-15T07:28:53;59.92;;;28.63;;
30948;SDS011;17637;51.984;21.208;2022-11-15T07:31:21;55.78;;;27.80;;
30948;SDS011;17637;51.984;21.208;2022-11-15T07:33:48;70.18;;;35.33;;
30948;SDS011;17637;51.984;21.208;2022-11-15T07:36:15;69.32;;;33.10;;
30948;SDS011;17637;51.984;21.208;2022-11-15T07:38:43;60.30;;;28.58;;
30948;SDS011;17637;51.984;21.208;2022-11-15T07:41:10;63.35;;;29.02;;
30948;SDS011;17637;51.984;21.208;2022-11-15T07:43:37;62.78;;;28.80;;
30948;SDS011;17637;51.984;21.208;2022-11-15T07:46:05;63.70;;;29.00;;
30948;SDS011;17637;51.984;21.208;2022-11-15T07:51:14;70.65;;;32.13;;
30948;SDS011;17637;51.984;21.208;2022-11-15T07:53:42;69.75;;;35.45;;
30948;SDS011;17637;51.984;21.208;2022-11-15T07:56:10;56.22;;;28.08;;
30948;SDS011;17637;51.984;21.208;2022-11-15T07:58:37;65.05;;;32.65;;
30948;SDS011;17637;51.984;21.208;2022-11-15T08:01:05;65.70;;;31.33;;
30948;SDS011;17637;51.984;21.208;2022-11-15T08:03:33;57.15;;;27.30;;
30948;SDS011;17637;51.984;21.208;2022-11-15T08:06:01;61.65;;;28.95;;
30948;SDS011;17637;51.984;21.208;2022-11-15T08:08:29;53.33;;;27.00;;
30948;SDS011;17637;51.984;21.208;2022-11-15T08:10:59;52.45;;;26.85;;
30948;SDS011;17637;51.984;21.208;2022-11-15T08:15:58;55.65;;;27.98;;
30948;SDS011;17637;51.984;21.208;2022-11-15T08:18:26;61.78;;;28.83;;
30948;SDS011;17637;51.984;21.208;2022-11-15T08:20:53;65.82;;;29.48;;
30948;SDS011;17637;51.984;21.208;2022-11-15T08:23:20;65.25;;;29.65;;
30948;SDS011;17637;51.984;21.208;2022-11-15T08:25:46;66.70;;;30.20;;
30948;SDS011;17637;51.984;21.208;2022-11-15T08:28:15;59.78;;;29.17;;
30948;SDS011;17637;51.984;21.208;2022-11-15T08:30:43;58.65;;;29.98;;
30948;SDS011;17637;51.984;21.208;2022-11-15T08:33:13;66.45;;;33.75;;
30948;SDS011;17637;51.984;21.208;2022-11-15T08:35:41;61.05;;;32.20;;
30948;SDS011;17637;51.984;21.208;2022-11-15T08:38:09;60.45;;;30.30;;
30948;SDS011;17637;51.984;21.208;2022-11-15T08:40:36;54.10;;;28.95;;
30948;SDS011;17637;51.984;21.208;2022-11-15T08:43:04;54.80;;;28.67;;
30948;SDS011;17637;51.984;21.208;2022-11-15T08:45:31;55.45;;;30.58;;
30948;SDS011;17637;51.984;21.208;2022-11-15T08:48:01;53.78;;;28.38;;
30948;SDS011;17637;51.984;21.208;2022-11-15T08:50:29;53.22;;;28.20;;
30948;SDS011;17637;51.984;21.208;2022-11-15T08:52:56;61.35;;;31.92;;
30948;SDS011;17637;51.984;21.208;2022-11-15T08:55:24;53.33;;;29.63;;
30948;SDS011;17637;51.984;21.208;2022-11-15T08:57:51;45.95;;;27.30;;
30948;SDS011;17637;51.984;21.208;2022-11-15T09:00:18;43.45;;;26.52;;
30948;SDS011;17637;51.984;21.208;2022-11-15T09:02:46;44.80;;;28.13;;
30948;SDS011;17637;51.984;21.208;2022-11-15T09:05:13;41.92;;;25.83;;
30948;SDS011;17637;51.984;21.208;2022-11-15T09:07:42;41.15;;;25.33;;
30948;SDS011;17637;51.984;21.208;2022-11-15T09:10:09;53.75;;;31.83;;
30948;SDS011;17637;51.984;21.208;2022-11-15T09:12:37;142.88;;;71.28;;
30948;SDS011;17637;51.984;21.208;2022-11-15T09:15:05;56.15;;;33.28;;
30948;SDS011;17637;51.984;21.208;2022-11-15T09:17:33;43.53;;;26.48;;
30948;SDS011;17637;51.984;21.208;2022-11-15T09:20:01;89.82;;;46.60;;
30948;SDS011;17637;51.984;21.208;2022-11-15T09:22:28;94.07;;;47.63;;
30948;SDS011;17637;51.984;21.208;2022-11-15T09:24:56;90.97;;;48.28;;
30948;SDS011;17637;51.984;21.208;2022-11-15T09:27:26;54.55;;;31.73;;
30948;SDS011;17637;51.984;21.208;2022-11-15T09:29:54;49.92;;;29.38;;
30948;SDS011;17637;51.984;21.208;2022-11-15T09:32:21;49.88;;;29.35;;
30948;SDS011;17637;51.984;21.208;2022-11-15T09:34:49;45.60;;;27.65;;
30948;SDS011;17637;51.984;21.208;2022-11-15T09:37:16;43.67;;;27.40;;
30948;SDS011;17637;51.984;21.208;2022-11-15T09:39:43;43.88;;;26.70;;
30948;SDS011;17637;51.984;21.208;2022-11-15T09:42:25;43.40;;;29.33;;
30948;SDS011;17637;51.984;21.208;2022-11-15T09:50:27;38.45;;;24.70;;
30948;SDS011;17637;51.984;21.208;2022-11-15T09:53:22;41.17;;;25.23;;
30948;SDS011;17637;51.984;21.208;2022-11-15T09:56:21;40.88;;;24.98;;
30948;SDS011;17637;51.984;21.208;2022-11-15T10:04:21;55.00;;;33.15;;
30948;SDS011;17637;51.984;21.208;2022-11-15T10:06:53;50.50;;;29.80;;
30948;SDS011;17637;51.984;21.208;2022-11-15T10:09:33;47.30;;;28.75;;
30948;SDS011;17637;51.984;21.208;2022-11-15T10:12:09;43.53;;;27.50;;
30948;SDS011;17637;51.984;21.208;2022-11-15T10:14:39;43.03;;;26.90;;
30948;SDS011;17637;51.984;21.208;2022-11-15T10:19:56;42.42;;;26.70;;
30948;SDS011;17637;51.984;21.208;2022-11-15T10:22:41;52.63;;;28.95;;
30948;SDS011;17637;51.984;21.208;2022-11-15T10:25:24;45.33;;;28.52;;
30948;SDS011;17637;51.984;21.208;2022-11-15T10:27:59;42.80;;;28.80;;
30948;SDS011;17637;51.984;21.208;2022-11-15T10:30:32;45.35;;;28.35;;
30948;SDS011;17637;51.984;21.208;2022-11-15T10:33:12;46.95;;;29.98;;
30948;SDS011;17637;51.984;21.208;2022-11-15T10:49:24;47.80;;;30.17;;
30948;SDS011;17637;51.984;21.208;2022-11-15T10:51:53;48.25;;;29.23;;
30948;SDS011;17637;51.984;21.208;2022-11-15T10:57:13;53.45;;;31.48;;
30948;SDS011;17637;51.984;21.208;2022-11-15T10:59:47;48.20;;;29.55;;
30948;SDS011;17637;51.984;21.208;2022-11-15T11:05:04;58.22;;;34.85;;
30948;SDS011;17637;51.984;21.208;2022-11-15T11:07:58;47.13;;;30.35;;
30948;SDS011;17637;51.984;21.208;2022-11-15T11:10:28;45.50;;;29.15;;
30948;SDS011;17637;51.984;21.208;2022-11-15T11:13:24;50.47;;;31.10;;
30948;SDS011;17637;51.984;21.208;2022-11-15T11:21:46;43.00;;;29.02;;
30948;SDS011;17637;51.984;21.208;2022-11-15T11:30:02;54.05;;;34.88;;
30948;SDS011;17637;51.984;21.208;2022-11-15T11:32:50;49.17;;;33.13;;
30948;SDS011;17637;51.984;21.208;2022-11-15T11:49:38;59.75;;;36.70;;
30948;SDS011;17637;51.984;21.208;2022-11-15T11:52:17;51.33;;;33.17;;
30948;SDS011;17637;51.984;21.208;2022-11-15T11:57:46;53.20;;;33.03;;
30948;SDS011;17637;51.984;21.208;2022-11-15T12:00:23;48.28;;;31.05;;
30948;SDS011;17637;51.984;21.208;2022-11-15T12:05:30;49.95;;;31.50;;
30948;SDS011;17637;51.984;21.208;2022-11-15T12:13:50;45.78;;;29.17;;
30948;SDS011;17637;51.984;21.208;2022-11-15T12:16:28;51.60;;;33.03;;
30948;SDS011;17637;51.984;21.208;2022-11-15T12:19:02;47.72;;;31.50;;
30948;SDS011;17637;51.984;21.208;2022-11-15T12:21:45;53.65;;;33.35;;
30948;SDS011;17637;51.984;21.208;2022-11-15T12:25:21;51.47;;;31.95;;
30948;SDS011;17637;51.984;21.208;2022-11-15T12:30:00;54.35;;;33.33;;
30948;SDS011;17637;51.984;21.208;2022-11-15T12:35:00;55.08;;;34.97;;
30948;SDS011;17637;51.984;21.208;2022-11-15T12:37:32;55.00;;;33.83;;
30948;SDS011;17637;51.984;21.208;2022-11-15T12:45:40;54.72;;;33.92;;
30948;SDS011;17637;51.984;21.208;2022-11-15T12:53:29;56.50;;;34.78;;
30948;SDS011;17637;51.984;21.208;2022-11-15T13:07:00;71.80;;;42.08;;
30948;SDS011;17637;51.984;21.208;2022-11-15T13:12:09;61.63;;;37.88;;
30948;SDS011;17637;51.984;21.208;2022-11-15T13:14:44;65.95;;;38.72;;
30948;SDS011;17637;51.984;21.208;2022-11-15T13:19:53;67.60;;;40.75;;
30948;SDS011;17637;51.984;21.208;2022-11-15T13:30:39;70.00;;;39.85;;
30948;SDS011;17637;51.984;21.208;2022-11-15T13:33:08;66.63;;;38.88;;
30948;SDS011;17637;51.984;21.208;2022-11-15T13:35:41;65.68;;;39.13;;
30948;SDS011;17637;51.984;21.208;2022-11-15T13:38:27;59.85;;;37.83;;
30948;SDS011;17637;51.984;21.208;2022-11-15T13:40:57;70.88;;;40.72;;
30948;SDS011;17637;51.984;21.208;2022-11-15T13:43:27;73.43;;;43.20;;
30948;SDS011;17637;51.984;21.208;2022-11-15T13:46:04;68.65;;;38.67;;
30948;SDS011;17637;51.984;21.208;2022-11-15T13:48:41;73.50;;;43.10;;
30948;SDS011;17637;51.984;21.208;2022-11-15T13:53:51;73.78;;;41.63;;
30948;SDS011;17637;51.984;21.208;2022-11-15T13:56:42;66.97;;;37.97;;
30948;SDS011;17637;51.984;21.208;2022-11-15T13:59:35;69.78;;;40.78;;
30948;SDS011;17637;51.984;21.208;2022-11-15T14:02:15;69.43;;;43.55;;
30948;SDS011;17637;51.984;21.208;2022-11-15T14:04:55;72.30;;;43.53;;
30948;SDS011;17637;51.984;21.208;2022-11-15T14:07:26;99.75;;;58.38;;
30948;SDS011;17637;51.984;21.208;2022-11-15T14:09:55;75.53;;;43.13;;
30948;SDS011;17637;51.984;21.208;2022-11-15T14:12:32;78.95;;;44.47;;
30948;SDS011;17637;51.984;21.208;2022-11-15T14:15:18;68.93;;;41.42;;
30948;SDS011;17637;51.984;21.208;2022-11-15T14:17:54;67.60;;;37.95;;
30948;SDS011;17637;51.984;21.208;2022-11-15T14:20:28;78.85;;;43.47;;
30948;SDS011;17637;51.984;21.208;2022-11-15T14:22:58;69.07;;;40.03;;
30948;SDS011;17637;51.984;21.208;2022-11-15T14:25:33;72.72;;;40.50;;
30948;SDS011;17637;51.984;21.208;2022-11-15T14:30:43;74.75;;;44.05;;
30948;SDS011;17637;51.984;21.208;2022-11-15T14:35:49;63.00;;;38.13;;
30948;SDS011;17637;51.984;21.208;2022-11-15T14:38:18;63.67;;;38.17;;
30948;SDS011;17637;51.984;21.208;2022-11-15T14:40:45;72.63;;;42.40;;
30948;SDS011;17637;51.984;21.208;2022-11-15T14:43:12;67.95;;;41.13;;
30948;SDS011;17637;51.984;21.208;2022-11-15T14:45:39;65.47;;;38.05;;
30948;SDS011;17637;51.984;21.208;2022-11-15T14:48:06;71.57;;;41.80;;
30948;SDS011;17637;51.984;21.208;2022-11-15T14:50:34;101.35;;;61.33;;
30948;SDS011;17637;51.984;21.208;2022-11-15T14:53:01;79.13;;;49.55;;
30948;SDS011;17637;51.984;21.208;2022-11-15T14:55:30;75.20;;;45.90;;
30948;SDS011;17637;51.984;21.208;2022-11-15T14:58:01;70.70;;;41.08;;
30948;SDS011;17637;51.984;21.208;2022-11-15T15:00:30;66.38;;;40.28;;
30948;SDS011;17637;51.984;21.208;2022-11-15T15:03:00;67.45;;;42.28;;
30948;SDS011;17637;51.984;21.208;2022-11-15T15:05:32;70.68;;;43.30;;
30948;SDS011;17637;51.984;21.208;2022-11-15T15:08:01;76.78;;;43.42;;
30948;SDS011;17637;51.984;21.208;2022-11-15T15:10:31;69.63;;;40.25;;
30948;SDS011;17637;51.984;21.208;2022-11-15T15:13:10;59.10;;;36.90;;
30948;SDS011;17637;51.984;21.208;2022-11-15T15:15:46;65.63;;;39.25;;
30948;SDS011;17637;51.984;21.208;2022-11-15T15:18:13;63.03;;;40.83;;
30948;SDS011;17637;51.984;21.208;2022-11-15T15:20:42;63.05;;;36.78;;
30948;SDS011;17637;51.984;21.208;2022-11-15T15:23:17;70.82;;;40.90;;
30948;SDS011;17637;51.984;21.208;2022-11-15T15:25:46;88.15;;;50.15;;
30948;SDS011;17637;51.984;21.208;2022-11-15T15:28:15;89.47;;;49.10;;
30948;SDS011;17637;51.984;21.208;2022-11-15T15:30:42;72.55;;;42.50;;
30948;SDS011;17637;51.984;21.208;2022-11-15T15:33:10;131.05;;;69.00;;
30948;SDS011;17637;51.984;21.208;2022-11-15T15:35:37;109.70;;;56.88;;
30948;SDS011;17637;51.984;21.208;2022-11-15T15:38:05;76.13;;;42.53;;
30948;SDS011;17637;51.984;21.208;2022-11-15T15:40:32;77.75;;;44.45;;
30948;SDS011;17637;51.984;21.208;2022-11-15T15:43:00;85.10;;;48.03;;
30948;SDS011;17637;51.984;21.208;2022-11-15T15:45:27;104.25;;;56.45;;
30948;SDS011;17637;51.984;21.208;2022-11-15T15:47:55;105.53;;;56.05;;
30948;SDS011;17637;51.984;21.208;2022-11-15T15:50:29;102.93;;;55.60;;
30948;SDS011;17637;51.984;21.208;2022-11-15T15:53:00;100.60;;;54.60;;
30948;SDS011;17637;51.984;21.208;2022-11-15T15:55:29;91.00;;;49.63;;
30948;SDS011;17637;51.984;21.208;2022-11-15T15:57:57;83.63;;;43.88;;
30948;SDS011;17637;51.984;21.208;2022-11-15T16:00:24;101.07;;;55.17;;
30948;SDS011;17637;51.984;21.208;2022-11-15T16:02:52;84.20;;;45.17;;
30948;SDS011;17637;51.984;21.208;2022-11-15T16:05:20;79.38;;;45.35;;
30948;SDS011;17637;51.984;21.208;2022-11-15T16:07:48;88.00;;;46.70;;
30948;SDS011;17637;51.984;21.208;2022-11-15T16:12:42;90.78;;;48.85;;
30948;SDS011;17637;51.984;21.208;2022-11-15T16:15:09;92.93;;;49.83;;
30948;SDS011;17637;51.984;21.208;2022-11-15T16:17:42;100.97;;;58.75;;
30948;SDS011;17637;51.984;21.208;2022-11-15T16:20:23;103.72;;;59.17;;
30948;SDS011;17637;51.984;21.208;2022-11-15T16:22:53;82.97;;;48.80;;
30948;SDS011;17637;51.984;21.208;2022-11-15T16:25:20;76.35;;;44.75;;
30948;SDS011;17637;51.984;21.208;2022-11-15T16:27:47;76.50;;;43.88;;
30948;SDS011;17637;51.984;21.208;2022-11-15T16:30:15;95.82;;;52.38;;
30948;SDS011;17637;51.984;21.208;2022-11-15T16:32:44;92.85;;;52.03;;
30948;SDS011;17637;51.984;21.208;2022-11-15T16:35:12;104.40;;;57.75;;
30948;SDS011;17637;51.984;21.208;2022-11-15T16:37:41;93.47;;;52.25;;
30948;SDS011;17637;51.984;21.208;2022-11-15T16:40:26;89.72;;;47.97;;
30948;SDS011;17637;51.984;21.208;2022-11-15T16:42:59;81.80;;;45.90;;
30948;SDS011;17637;51.984;21.208;2022-11-15T16:45:28;77.80;;;44.38;;
30948;SDS011;17637;51.984;21.208;2022-11-15T16:47:57;88.38;;;51.15;;
30948;SDS011;17637;51.984;21.208;2022-11-15T16:50:27;91.70;;;53.35;;
30948;SDS011;17637;51.984;21.208;2022-11-15T16:52:56;86.85;;;48.67;;
30948;SDS011;17637;51.984;21.208;2022-11-15T16:55:25;90.57;;;48.15;;
30948;SDS011;17637;51.984;21.208;2022-11-15T16:57:54;81.07;;;46.03;;
30948;SDS011;17637;51.984;21.208;2022-11-15T17:00:23;89.00;;;48.83;;
30948;SDS011;17637;51.984;21.208;2022-11-15T17:02:51;92.85;;;49.78;;
30948;SDS011;17637;51.984;21.208;2022-11-15T17:05:20;91.43;;;48.25;;
30948;SDS011;17637;51.984;21.208;2022-11-15T17:07:49;85.75;;;47.88;;
30948;SDS011;17637;51.984;21.208;2022-11-15T17:10:21;83.53;;;46.13;;
30948;SDS011;17637;51.984;21.208;2022-11-15T17:12:49;81.05;;;44.17;;
30948;SDS011;17637;51.984;21.208;2022-11-15T17:15:17;80.22;;;44.33;;